Grande Europa — ICGE — position and weather

sailwx.info

Track history (hours):
 
Tides and Currents Weather Stations Pressure Air Temp Water Temp Dewpoint Dewpoint Depression Visibility Wind Speed Wind Dir Waves Ship Positions

Grande Europa

Last reported at 2014-Dec-21 12:33 UTC. Time now 2014-Dec-21 18:40 UTC.
Position N 34°18' E 033°10'.

Length 183 m; draft 8.3 m.

Type: Cargo ship. MMSI: 247206000.

Date/timePositionNaut miles runAvg speedWind from/ knotsBaromVisibWave heightAir tempDewpointWater temp
2014-Dec-21 12:33N 34°18' E 033°10'1918.7
2014-Dec-21 11:33N 34°36' E 033°04'4 4.3
2014-Dec-21 10:32N 34°39' E 033°01'0 0.0
2014-Dec-21 09:32N 34°39' E 033°01'0 0.0
2014-Dec-21 08:32N 34°39' E 033°01'0 0.0
2014-Dec-21 07:32N 34°39' E 033°01'0 0.0
2014-Dec-21 06:32N 34°39' E 033°01'0 0.0
2014-Dec-21 05:33N 34°39' E 033°01'0 0.4
2014-Dec-21 04:34N 34°39' E 033°01'5 5.2
2014-Dec-21 03:33N 34°34' E 033°04'1515.0
2014-Dec-21 02:33N 34°20' E 032°59'2216.7
2014-Dec-21 01:14N 33°60' E 032°48'318 7.1
2014-Dec-19 04:33N 36°15' E 026°56'1818.5
2014-Dec-19 03:33N 36°29' E 026°41'1818.1
2014-Dec-19 02:33N 36°43' E 026°27'1918.6
2014-Dec-19 01:33N 36°58' E 026°12'2018.7
2014-Dec-19 00:30N 37°15' E 026°00'1718.2
2014-Dec-18 23:32N 37°30' E 025°50'1818.5
2014-Dec-18 22:33N 37°49' E 025°48'71 3.7
2014-Dec-18 03:25N 38°26' E 027°06'9112.6
2014-Dec-17 20:12N 38°15' E 025°10'1218.6
2014-Dec-17 19:33N 38°08' E 024°58'2018.4
2014-Dec-17 18:29N 37°57' E 024°37'1718.1
2014-Dec-17 17:33N 37°46' E 024°21'1717.4
2014-Dec-17 16:33N 37°37' E 024°03'1817.8
2014-Dec-17 15:34N 37°41' E 023°41'1615.8
2014-Dec-17 14:33N 37°57' E 023°36'1 1.0
2014-Dec-17 13:33N 37°58' E 023°36'0 0.0
2014-Dec-17 12:33N 37°58' E 023°36'0 0.0
2014-Dec-17 11:33N 37°58' E 023°36'0 0.0
2014-Dec-17 10:30N 37°58' E 023°36'0 0.0
2014-Dec-17 09:30N 37°58' E 023°36'0 0.0
2014-Dec-17 08:33N 37°58' E 023°36'0 0.0
2014-Dec-17 07:21N 37°58' E 023°36'0 0.0
2014-Dec-17 06:30N 37°58' E 023°36'0 0.0
2014-Dec-17 05:30N 37°58' E 023°36'0 0.0
2014-Dec-17 04:30N 37°58' E 023°36'0 0.0
2014-Dec-17 03:30N 37°58' E 023°36'0 0.0
2014-Dec-17 02:33N 37°58' E 023°36'0 0.0
2014-Dec-17 01:30N 37°58' E 023°36'0 0.0
2014-Dec-17 00:33N 37°58' E 023°36'0 0.0
2014-Dec-16 23:30N 37°58' E 023°36'0 0.0
2014-Dec-16 22:30N 37°58' E 023°36'0 0.0
2014-Dec-16 21:30N 37°58' E 023°36'0 0.0
2014-Dec-16 20:30N 37°58' E 023°36'0 0.0
2014-Dec-16 19:33N 37°58' E 023°36'0 0.0
2014-Dec-16 18:33N 37°58' E 023°36'0 0.0
2014-Dec-16 17:33N 37°58' E 023°36'0 0.0
2014-Dec-16 16:33N 37°58' E 023°36'2 2.2
2014-Dec-16 15:33N 37°55' E 023°37'6 5.8
2014-Dec-16 14:33N 37°50' E 023°40'2017.5
2014-Dec-16 13:25N 37°31' E 023°44'4118.1
2014-Dec-16 11:09N 36°50' E 023°34'1418.3
2014-Dec-16 10:24N 36°39' E 023°24'36217.2
2014-Dec-15 13:21N 37°49' E 015°58'2814.3
2014-Dec-15 11:23N 38°11' E 015°35'150 8.4
2014-Dec-14 17:32N 40°33' E 014°31'1717.9
2014-Dec-14 16:33N 40°26' E 014°10'1818.1
2014-Dec-14 15:33N 40°20' E 013°48'20117.9
2014-Dec-14 04:21N 39°03' E 009°46'1817.9
2014-Dec-14 03:22N 38°57' E 009°25'1617.6
2014-Dec-14 02:29N 38°52' E 009°06'1817.6
2014-Dec-14 01:29N 38°48' E 008°44'1817.7
2014-Dec-14 00:28N 38°47' E 008°21'21918.4
2014-Dec-13 12:32N 39°01' E 003°40'1818.8
2014-Dec-13 11:34N 39°03' E 003°17'1918.6
2014-Dec-13 10:33N 39°04' E 002°53'2518.5
2014-Dec-13 09:13N 39°08' E 002°21'1718.0
2014-Dec-13 08:16N 39°10' E 001°59'1318.0
2014-Dec-13 07:33N 39°12' E 001°43'1817.9
2014-Dec-13 06:33N 39°15' E 001°20'7218.0
2014-Dec-13 02:32N 39°25' W 000°12'5 4.8
2014-Dec-13 01:31N 39°26' W 000°18'0 0.0
2014-Dec-13 00:31N 39°26' W 000°18'0 0.0
2014-Dec-12 23:31N 39°26' W 000°18'0 0.0
2014-Dec-12 22:31N 39°26' W 000°18'0 0.0
2014-Dec-12 21:31N 39°26' W 000°18'0 0.0
2014-Dec-12 20:31N 39°26' W 000°18'0 0.0
2014-Dec-12 19:31N 39°26' W 000°18'0 0.0
2014-Dec-12 18:31N 39°26' W 000°18'0 0.0
2014-Dec-12 17:31N 39°26' W 000°18'0 0.0
2014-Dec-12 16:31N 39°26' W 000°18'0 0.0
2014-Dec-12 15:31N 39°26' W 000°18'0 0.0
2014-Dec-12 14:31N 39°26' W 000°18'0 0.0
2014-Dec-12 13:31N 39°26' W 000°18'0 0.0
2014-Dec-12 12:31N 39°26' W 000°18'2912.0
2014-Dec-12 10:06N 39°04' E 000°06'6714.7
2014-Dec-12 05:33N 37°59' W 000°09'1917.2
2014-Dec-12 04:29N 37°43' W 000°22'1616.9
2014-Dec-12 03:33N 37°31' W 000°34'1717.2
2014-Dec-12 02:33N 37°19' W 000°50'1717.3
2014-Dec-12 01:33N 37°08' W 001°07'20717.2
2014-Dec-11 13:33N 35°60' W 005°10'  
Track history (hours):
 
Tides and Currents Weather Stations Pressure Air Temp Water Temp Dewpoint Dewpoint Depression Visibility Wind Speed Wind Dir Waves Ship Positions

Grande Europa

Last reported at 2014-Dec-21 12:33 UTC. Time now 2014-Dec-21 18:40 UTC.
Position N 34°18' E 033°10'.

Length 183 m; draft 8.3 m.

Type: Cargo ship. MMSI: 247206000.

Date/timePositionNaut miles runAvg speedWind from/ knotsBaromVisibWave heightAir tempDewpointWater temp
2014-Dec-21 12:33N 34°18' E 033°10'1918.7
2014-Dec-21 11:33N 34°36' E 033°04'4 4.3
2014-Dec-21 10:32N 34°39' E 033°01'0 0.0
2014-Dec-21 09:32N 34°39' E 033°01'0 0.0
2014-Dec-21 08:32N 34°39' E 033°01'0 0.0
2014-Dec-21 07:32N 34°39' E 033°01'0 0.0
2014-Dec-21 06:32N 34°39' E 033°01'0 0.0
2014-Dec-21 05:33N 34°39' E 033°01'0 0.4
2014-Dec-21 04:34N 34°39' E 033°01'5 5.2
2014-Dec-21 03:33N 34°34' E 033°04'1515.0
2014-Dec-21 02:33N 34°20' E 032°59'2216.7
2014-Dec-21 01:14N 33°60' E 032°48'318 7.1
2014-Dec-19 04:33N 36°15' E 026°56'1818.5
2014-Dec-19 03:33N 36°29' E 026°41'1818.1
2014-Dec-19 02:33N 36°43' E 026°27'1918.6
2014-Dec-19 01:33N 36°58' E 026°12'2018.7
2014-Dec-19 00:30N 37°15' E 026°00'1718.2
2014-Dec-18 23:32N 37°30' E 025°50'1818.5
2014-Dec-18 22:33N 37°49' E 025°48'71 3.7
2014-Dec-18 03:25N 38°26' E 027°06'9112.6
2014-Dec-17 20:12N 38°15' E 025°10'1218.6
2014-Dec-17 19:33N 38°08' E 024°58'2018.4
2014-Dec-17 18:29N 37°57' E 024°37'1718.1
2014-Dec-17 17:33N 37°46' E 024°21'1717.4
2014-Dec-17 16:33N 37°37' E 024°03'1817.8
2014-Dec-17 15:34N 37°41' E 023°41'1615.8
2014-Dec-17 14:33N 37°57' E 023°36'1 1.0
2014-Dec-17 13:33N 37°58' E 023°36'0 0.0
2014-Dec-17 12:33N 37°58' E 023°36'0 0.0
2014-Dec-17 11:33N 37°58' E 023°36'0 0.0
2014-Dec-17 10:30N 37°58' E 023°36'0 0.0
2014-Dec-17 09:30N 37°58' E 023°36'0 0.0
2014-Dec-17 08:33N 37°58' E 023°36'0 0.0
2014-Dec-17 07:21N 37°58' E 023°36'0 0.0
2014-Dec-17 06:30N 37°58' E 023°36'0 0.0
2014-Dec-17 05:30N 37°58' E 023°36'0 0.0
2014-Dec-17 04:30N 37°58' E 023°36'0 0.0
2014-Dec-17 03:30N 37°58' E 023°36'0 0.0
2014-Dec-17 02:33N 37°58' E 023°36'0 0.0
2014-Dec-17 01:30N 37°58' E 023°36'0 0.0
2014-Dec-17 00:33N 37°58' E 023°36'0 0.0
2014-Dec-16 23:30N 37°58' E 023°36'0 0.0
2014-Dec-16 22:30N 37°58' E 023°36'0 0.0
2014-Dec-16 21:30N 37°58' E 023°36'0 0.0
2014-Dec-16 20:30N 37°58' E 023°36'0 0.0
2014-Dec-16 19:33N 37°58' E 023°36'0 0.0
2014-Dec-16 18:33N 37°58' E 023°36'0 0.0
2014-Dec-16 17:33N 37°58' E 023°36'0 0.0
2014-Dec-16 16:33N 37°58' E 023°36'2 2.2
2014-Dec-16 15:33N 37°55' E 023°37'6 5.8
2014-Dec-16 14:33N 37°50' E 023°40'2017.5
2014-Dec-16 13:25N 37°31' E 023°44'4118.1
2014-Dec-16 11:09N 36°50' E 023°34'1418.3
2014-Dec-16 10:24N 36°39' E 023°24'36217.2
2014-Dec-15 13:21N 37°49' E 015°58'2814.3
2014-Dec-15 11:23N 38°11' E 015°35'150 8.4
2014-Dec-14 17:32N 40°33' E 014°31'1717.9
2014-Dec-14 16:33N 40°26' E 014°10'1818.1
2014-Dec-14 15:33N 40°20' E 013°48'20117.9
2014-Dec-14 04:21N 39°03' E 009°46'1817.9
2014-Dec-14 03:22N 38°57' E 009°25'1617.6
2014-Dec-14 02:29N 38°52' E 009°06'1817.6
2014-Dec-14 01:29N 38°48' E 008°44'1817.7
2014-Dec-14 00:28N 38°47' E 008°21'21918.4
2014-Dec-13 12:32N 39°01' E 003°40'1818.8
2014-Dec-13 11:34N 39°03' E 003°17'1918.6
2014-Dec-13 10:33N 39°04' E 002°53'2518.5
2014-Dec-13 09:13N 39°08' E 002°21'1718.0
2014-Dec-13 08:16N 39°10' E 001°59'1318.0
2014-Dec-13 07:33N 39°12' E 001°43'1817.9
2014-Dec-13 06:33N 39°15' E 001°20'7218.0
2014-Dec-13 02:32N 39°25' W 000°12'5 4.8
2014-Dec-13 01:31N 39°26' W 000°18'0 0.0
2014-Dec-13 00:31N 39°26' W 000°18'0 0.0
2014-Dec-12 23:31N 39°26' W 000°18'0 0.0
2014-Dec-12 22:31N 39°26' W 000°18'0 0.0
2014-Dec-12 21:31N 39°26' W 000°18'0 0.0
2014-Dec-12 20:31N 39°26' W 000°18'0 0.0
2014-Dec-12 19:31N 39°26' W 000°18'0 0.0
2014-Dec-12 18:31N 39°26' W 000°18'0 0.0
2014-Dec-12 17:31N 39°26' W 000°18'0 0.0
2014-Dec-12 16:31N 39°26' W 000°18'0 0.0
2014-Dec-12 15:31N 39°26' W 000°18'0 0.0
2014-Dec-12 14:31N 39°26' W 000°18'0 0.0
2014-Dec-12 13:31N 39°26' W 000°18'0 0.0
2014-Dec-12 12:31N 39°26' W 000°18'2912.0
2014-Dec-12 10:06N 39°04' E 000°06'6714.7
2014-Dec-12 05:33N 37°59' W 000°09'1917.2
2014-Dec-12 04:29N 37°43' W 000°22'1616.9
2014-Dec-12 03:33N 37°31' W 000°34'1717.2
2014-Dec-12 02:33N 37°19' W 000°50'1717.3
2014-Dec-12 01:33N 37°08' W 001°07'20717.2
2014-Dec-11 13:33N 35°60' W 005°10'  

Dump ship's entire track history